createdAt,value
2022-11-24T00:02:23.801Z,82.95
2022-11-24T00:04:50.300Z,82.62
2022-11-24T00:07:16.644Z,82.45
2022-11-24T00:09:43.022Z,81.95
2022-11-24T00:12:09.409Z,81.79
2022-11-24T00:14:35.936Z,81.69
2022-11-24T00:17:02.463Z,81.35
2022-11-24T00:19:28.829Z,82.32
2022-11-24T00:21:55.233Z,81.99
2022-11-24T00:24:21.574Z,81.88
2022-11-24T00:26:47.937Z,81.56
2022-11-24T00:29:14.306Z,81.49
2022-11-24T00:31:42.348Z,81.17
2022-11-24T00:34:13.786Z,80.51
2022-11-24T00:36:41.226Z,80.76
2022-11-24T00:39:11.857Z,82.13
2022-11-24T00:41:39.331Z,81.65
2022-11-24T00:44:06.105Z,81.73
2022-11-24T00:46:32.673Z,81.61
2022-11-24T00:49:00.411Z,81.40
2022-11-24T00:51:29.658Z,81.37
2022-11-24T00:53:57.758Z,81.27
2022-11-24T00:56:25.136Z,81.48
2022-11-24T00:58:52.193Z,82.18
2022-11-24T01:01:21.995Z,81.81
2022-11-24T01:03:48.551Z,81.89
2022-11-24T01:06:23.395Z,82.34
2022-11-24T01:08:50.102Z,82.61
2022-11-24T01:11:22.270Z,82.64
2022-11-24T01:13:52.809Z,82.90
2022-11-24T01:16:25.571Z,82.83
2022-11-24T01:18:54.151Z,82.95
2022-11-24T01:21:22.400Z,82.75
2022-11-24T01:23:49.221Z,82.61
2022-11-24T01:26:18.242Z,83.19
2022-11-24T01:28:47.442Z,83.26
2022-11-24T01:31:14.777Z,83.56
2022-11-24T01:33:41.408Z,83.39
2022-11-24T01:36:07.816Z,83.01
2022-11-24T01:38:34.214Z,83.03
2022-11-24T01:41:07.571Z,82.46
2022-11-24T01:43:34.478Z,82.63
2022-11-24T01:46:15.893Z,82.63
2022-11-24T01:48:51.743Z,82.82
2022-11-24T01:51:24.239Z,82.95
2022-11-24T01:54:05.991Z,83.10
2022-11-24T01:56:37.024Z,83.36
2022-11-24T01:59:07.403Z,83.22
2022-11-24T02:01:34.416Z,83.21
2022-11-24T02:04:06.845Z,83.28
2022-11-24T02:06:36.727Z,83.48
2022-11-24T02:09:16.523Z,83.53
2022-11-24T02:11:44.476Z,83.42
2022-11-24T02:14:14.615Z,83.53
2022-11-24T02:16:44.235Z,83.30
2022-11-24T02:19:24.298Z,83.39
2022-11-24T02:21:50.841Z,83.45
2022-11-24T02:24:21.614Z,83.60
2022-11-24T02:26:49.546Z,83.23
2022-11-24T02:29:16.001Z,82.90
2022-11-24T02:31:47.447Z,83.08
2022-11-24T02:34:13.974Z,82.53
2022-11-24T02:36:40.302Z,82.96
2022-11-24T02:39:12.469Z,83.28
2022-11-24T02:41:43.253Z,83.20
2022-11-24T02:44:09.688Z,83.43
2022-11-24T02:46:36.071Z,83.26
2022-11-24T02:49:02.451Z,83.01
2022-11-24T02:51:29.609Z,82.57
2022-11-24T02:53:56.142Z,82.34
2022-11-24T02:56:22.484Z,81.69
2022-11-24T02:58:48.822Z,81.89
2022-11-24T03:01:15.181Z,81.78
2022-11-24T03:03:41.547Z,81.67
2022-11-24T03:06:07.892Z,80.97
2022-11-24T03:08:34.202Z,80.66
2022-11-24T03:11:02.189Z,80.39
2022-11-24T03:13:28.718Z,80.01
2022-11-24T03:15:55.377Z,79.69
2022-11-24T03:18:21.784Z,79.73
2022-11-24T03:20:48.113Z,80.00
2022-11-24T03:23:14.508Z,80.13
2022-11-24T03:25:40.847Z,80.58
2022-11-24T03:28:07.191Z,80.57
2022-11-24T03:30:33.538Z,80.49
2022-11-24T03:32:59.858Z,80.81
2022-11-24T03:35:26.191Z,80.26
2022-11-24T03:37:52.662Z,80.03
2022-11-24T03:40:19.043Z,79.41
2022-11-24T03:42:45.386Z,79.83
2022-11-24T03:45:38.197Z,79.91
2022-11-24T03:47:58.150Z,79.83
2022-11-24T03:50:24.466Z,80.35
2022-11-24T03:52:50.974Z,80.67
2022-11-24T03:55:17.301Z,80.58
2022-11-24T03:57:43.668Z,80.58
2022-11-24T04:00:11.055Z,80.55
2022-11-24T04:02:37.963Z,80.42
2022-11-24T04:05:05.333Z,80.65
2022-11-24T04:07:31.686Z,80.41
2022-11-24T04:09:58.427Z,80.67
2022-11-24T04:12:43.205Z,80.57
2022-11-24T04:15:11.637Z,80.52
2022-11-24T04:17:37.950Z,80.61
2022-11-24T04:20:05.241Z,79.98
2022-11-24T04:22:31.570Z,79.84
2022-11-24T04:24:57.941Z,79.36
2022-11-24T04:27:24.290Z,79.67
2022-11-24T04:29:51.029Z,79.53
2022-11-24T04:32:17.547Z,79.60
2022-11-24T04:34:44.105Z,79.65
2022-11-24T04:37:10.594Z,79.30
2022-11-24T04:39:36.933Z,78.73
2022-11-24T04:42:03.489Z,78.49
2022-11-24T04:44:29.832Z,78.44
2022-11-24T04:46:56.290Z,78.68
2022-11-24T04:49:22.935Z,78.49
2022-11-24T04:51:49.454Z,78.39
2022-11-24T04:54:16.298Z,78.15
2022-11-24T04:56:43.768Z,78.39
2022-11-24T04:59:14.865Z,78.68
2022-11-24T05:01:45.757Z,78.05
2022-11-24T05:04:14.546Z,78.50
2022-11-24T05:06:41.230Z,78.56
2022-11-24T05:09:08.187Z,77.90
2022-11-24T05:11:34.723Z,77.97
2022-11-24T05:14:01.799Z,78.29
2022-11-24T05:16:28.181Z,77.79
2022-11-24T05:18:54.539Z,77.92
2022-11-24T05:21:20.859Z,78.52
2022-11-24T05:23:47.193Z,78.15
2022-11-24T05:26:13.521Z,77.86
2022-11-24T05:28:39.869Z,77.51
2022-11-24T05:31:06.231Z,77.54
2022-11-24T05:33:33.267Z,77.50
2022-11-24T05:36:04.911Z,77.32
2022-11-24T05:38:32.163Z,77.39
2022-11-24T05:41:05.703Z,77.07
2022-11-24T05:43:32.108Z,76.42
2022-11-24T05:46:01.852Z,76.78
2022-11-24T05:48:28.696Z,77.37
2022-11-24T05:50:57.889Z,77.53
2022-11-24T05:53:26.389Z,77.53
2022-11-24T05:55:52.759Z,77.07
2022-11-24T05:58:19.101Z,77.05
2022-11-24T06:00:45.770Z,77.16
2022-11-24T06:03:12.706Z,76.83
2022-11-24T06:05:39.400Z,76.94
2022-11-24T06:08:05.914Z,76.57
2022-11-24T06:10:32.281Z,76.73
2022-11-24T06:12:58.646Z,76.58
2022-11-24T06:15:26.005Z,76.61
2022-11-24T06:17:55.130Z,76.50
2022-11-24T06:20:22.271Z,76.49
2022-11-24T06:22:48.791Z,76.39
2022-11-24T06:25:16.132Z,76.30
2022-11-24T06:27:42.875Z,76.38
2022-11-24T06:30:09.809Z,76.45
2022-11-24T06:32:36.184Z,76.16
2022-11-24T06:35:02.636Z,76.04
2022-11-24T06:37:28.989Z,76.23
2022-11-24T06:39:55.335Z,76.23
2022-11-24T06:42:21.886Z,75.90
2022-11-24T06:44:48.357Z,76.21
2022-11-24T06:47:15.330Z,75.36
2022-11-24T06:49:41.766Z,75.24
2022-11-24T06:52:08.370Z,75.52
2022-11-24T06:54:34.869Z,74.90
2022-11-24T06:57:01.329Z,75.76
2022-11-24T06:59:27.841Z,75.65
2022-11-24T07:01:54.193Z,75.27
2022-11-24T07:04:20.806Z,75.53
2022-11-24T07:06:47.118Z,76.05
2022-11-24T07:09:14.125Z,75.66
2022-11-24T07:11:41.362Z,75.85
2022-11-24T07:14:08.206Z,76.11
2022-11-24T07:16:34.776Z,75.81
2022-11-24T07:19:01.669Z,76.06
2022-11-24T07:21:29.113Z,75.46
2022-11-24T07:23:57.184Z,75.08
2022-11-24T07:26:24.783Z,75.55
2022-11-24T07:28:51.374Z,75.27
2022-11-24T07:31:20.473Z,75.24
2022-11-24T07:33:51.877Z,75.51
2022-11-24T07:36:18.600Z,75.41
2022-11-24T07:38:45.387Z,75.35
2022-11-24T07:41:13.038Z,75.07
2022-11-24T07:43:39.570Z,74.85
2022-11-24T07:46:11.497Z,75.16
2022-11-24T07:48:37.977Z,75.06
2022-11-24T07:51:05.548Z,75.31
2022-11-24T07:53:33.113Z,75.40
2022-11-24T07:56:00.998Z,75.73
2022-11-24T07:58:32.620Z,75.25
2022-11-24T08:00:59.838Z,75.62
2022-11-24T08:03:26.313Z,74.91
2022-11-24T08:08:43.211Z,76.59
2022-11-24T08:11:15.381Z,77.93
2022-11-24T08:13:41.799Z,79.57
2022-11-24T08:16:16.989Z,81.06
2022-11-24T08:18:44.324Z,81.89
2022-11-24T08:21:14.365Z,82.78
2022-11-24T08:23:41.451Z,83.10
2022-11-24T08:26:13.627Z,83.73
2022-11-24T08:28:40.026Z,82.77
2022-11-24T08:31:13.385Z,83.40
2022-11-24T08:33:40.697Z,82.50
2022-11-24T08:36:09.534Z,82.56
2022-11-24T08:38:36.494Z,81.73
2022-11-24T08:41:05.247Z,82.48
2022-11-24T08:43:31.753Z,81.42
2022-11-24T08:46:07.217Z,80.97
2022-11-24T08:48:34.177Z,80.08
2022-11-24T08:51:08.100Z,81.18
2022-11-24T08:53:34.451Z,80.83
2022-11-24T08:56:01.701Z,81.48
2022-11-24T08:58:29.395Z,80.96
2022-11-24T09:00:56.016Z,81.52
2022-11-24T09:03:22.441Z,81.04
2022-11-24T09:05:52.927Z,81.69
2022-11-24T09:08:19.520Z,82.12
2022-11-24T09:10:46.593Z,82.06
2022-11-24T09:13:12.909Z,82.39
2022-11-24T09:15:39.229Z,82.19
2022-11-24T09:18:05.598Z,81.86
2022-11-24T09:20:31.917Z,82.11
2022-11-24T09:22:58.230Z,81.28
2022-11-24T09:25:24.584Z,81.42
2022-11-24T09:27:51.140Z,81.10
2022-11-24T09:30:17.845Z,81.53
2022-11-24T09:32:44.310Z,80.68
2022-11-24T09:35:10.829Z,80.72
2022-11-24T09:37:37.286Z,80.58
2022-11-24T09:40:03.949Z,78.98
2022-11-24T09:42:40.193Z,79.40
2022-11-24T09:45:57.462Z,79.02
2022-11-24T09:48:27.441Z,78.79
2022-11-24T09:50:54.795Z,79.52
2022-11-24T09:53:34.014Z,78.45
2022-11-24T09:56:11.915Z,79.31
2022-11-24T09:58:51.064Z,79.05
2022-11-24T10:01:22.802Z,78.93
2022-11-24T10:03:51.085Z,78.51
2022-11-24T10:06:25.618Z,78.64
2022-11-24T10:09:10.569Z,78.47
2022-11-24T10:11:51.850Z,77.81
2022-11-24T10:14:55.604Z,77.96
2022-11-24T10:17:37.478Z,77.86
2022-11-24T10:20:09.889Z,77.36
2022-11-24T10:22:56.965Z,77.28
2022-11-24T10:25:51.822Z,76.61
2022-11-24T10:28:18.304Z,76.50
2022-11-24T10:30:44.767Z,75.92
2022-11-24T10:33:23.165Z,76.20
2022-11-24T10:36:01.876Z,76.51
2022-11-24T10:38:38.950Z,75.54
2022-11-24T10:41:12.268Z,76.02
2022-11-24T10:43:41.858Z,75.78
2022-11-24T10:46:13.365Z,75.94
2022-11-24T10:48:47.845Z,75.57
2022-11-24T10:51:42.466Z,75.96
2022-11-24T10:54:20.319Z,75.88
2022-11-24T10:56:50.157Z,75.73
2022-11-24T10:59:36.765Z,75.83
2022-11-24T11:02:29.961Z,75.75
2022-11-24T11:04:56.646Z,76.00
2022-11-24T11:07:25.905Z,75.54
2022-11-24T11:10:20.638Z,75.72
2022-11-24T11:12:47.603Z,75.53
2022-11-24T11:15:31.547Z,75.74
2022-11-24T11:18:01.146Z,76.11
2022-11-24T11:20:31.202Z,75.38
2022-11-24T11:23:00.400Z,74.88
2022-11-24T11:25:32.612Z,75.16
2022-11-24T11:28:18.354Z,74.76
2022-11-24T11:31:18.144Z,75.11
2022-11-24T11:34:04.248Z,75.05
2022-11-24T11:36:33.011Z,75.73
2022-11-24T11:38:59.688Z,76.51
2022-11-24T11:41:32.250Z,76.33
2022-11-24T11:44:16.830Z,76.38
2022-11-24T11:46:44.926Z,75.53
2022-11-24T11:49:13.232Z,75.47
2022-11-24T11:52:12.436Z,75.49
2022-11-24T11:55:08.806Z,75.99
2022-11-24T11:58:01.519Z,76.00
2022-11-24T12:00:33.946Z,75.10
2022-11-24T12:03:19.351Z,75.67
2022-11-24T12:06:03.548Z,75.33
2022-11-24T12:09:18.642Z,75.59
2022-11-24T12:11:53.162Z,74.56
2022-11-24T12:14:52.754Z,74.71
2022-11-24T12:17:38.783Z,74.72
2022-11-24T12:20:20.040Z,74.94
2022-11-24T12:22:55.498Z,74.39
2022-11-24T12:25:30.198Z,74.34
2022-11-24T12:28:13.271Z,73.79
2022-11-24T12:31:07.043Z,73.82
2022-11-24T12:33:47.589Z,74.44
2022-11-24T12:36:35.594Z,73.75
2022-11-24T12:39:07.130Z,73.83
2022-11-24T12:42:01.506Z,73.90
2022-11-24T12:44:38.990Z,73.84
2022-11-24T12:47:21.651Z,73.45
2022-11-24T12:50:10.325Z,73.17
2022-11-24T12:52:43.918Z,73.53
2022-11-24T12:55:22.066Z,73.37
2022-11-24T12:58:09.357Z,73.06
2022-11-24T13:01:18.940Z,72.89
2022-11-24T13:04:17.379Z,72.44
2022-11-24T13:07:01.091Z,71.37
2022-11-24T13:09:27.430Z,71.97
2022-11-24T13:12:05.886Z,71.18
2022-11-24T13:14:36.264Z,70.28
2022-11-24T13:17:32.895Z,70.41
2022-11-24T13:20:21.207Z,70.79
2022-11-24T13:22:56.250Z,71.00
2022-11-24T13:25:26.297Z,71.40
2022-11-24T13:27:55.300Z,70.20
2022-11-24T13:30:33.766Z,69.81
2022-11-24T13:33:16.514Z,69.58
2022-11-24T13:36:04.091Z,69.57
2022-11-24T13:38:45.843Z,69.39
2022-11-24T13:41:32.575Z,67.93
2022-11-24T13:44:14.637Z,67.68
2022-11-24T13:47:03.521Z,65.93
2022-11-24T13:49:42.549Z,66.10
2022-11-24T13:52:40.062Z,65.06
2022-11-24T13:55:12.391Z,65.39
2022-11-24T13:57:49.473Z,64.33
2022-11-24T14:00:24.675Z,64.28
2022-11-24T14:02:53.281Z,64.32
2022-11-24T14:05:24.050Z,63.98
2022-11-24T14:07:52.992Z,64.80
2022-11-24T14:10:32.378Z,64.72
2022-11-24T14:13:22.612Z,63.17
2022-11-24T14:16:04.115Z,63.53
2022-11-24T14:18:32.081Z,63.83
2022-11-24T14:21:01.260Z,64.12
2022-11-24T14:23:28.071Z,63.16
2022-11-24T14:25:54.583Z,63.38
2022-11-24T14:28:29.055Z,63.31
2022-11-24T14:31:09.440Z,63.56
2022-11-24T14:33:36.592Z,63.27
2022-11-24T14:36:03.249Z,63.57
2022-11-24T14:38:29.611Z,63.34
2022-11-24T14:40:56.495Z,63.37
2022-11-24T14:43:28.982Z,63.18
2022-11-24T14:46:02.254Z,63.07
2022-11-24T14:48:36.400Z,62.89
2022-11-24T14:51:10.318Z,62.61
2022-11-24T14:53:40.899Z,62.97
2022-11-24T14:56:28.946Z,62.95
2022-11-24T14:58:56.715Z,63.63
2022-11-24T15:01:23.292Z,63.56
2022-11-24T15:04:26.518Z,63.33
2022-11-24T15:07:27.408Z,63.35
2022-11-24T15:09:58.255Z,63.44
2022-11-24T15:12:36.037Z,63.98
2022-11-24T15:15:05.382Z,64.32
2022-11-24T15:17:32.238Z,64.60
2022-11-24T15:20:16.825Z,64.62
2022-11-24T15:22:46.441Z,64.23
2022-11-24T15:25:32.758Z,64.63
2022-11-24T15:28:00.397Z,65.05
2022-11-24T15:30:27.037Z,64.45
2022-11-24T15:32:56.078Z,64.40
2022-11-24T15:35:24.984Z,64.11
2022-11-24T15:37:51.635Z,63.68
2022-11-24T15:40:18.804Z,63.57
2022-11-24T15:42:54.447Z,63.53
2022-11-24T15:45:22.874Z,64.00
2022-11-24T15:47:50.167Z,64.64
2022-11-24T15:50:17.314Z,64.49
2022-11-24T15:52:44.225Z,64.58
2022-11-24T15:55:17.318Z,63.46
2022-11-24T15:57:44.322Z,63.49
2022-11-24T16:00:19.170Z,62.48
2022-11-24T16:02:45.523Z,62.17
2022-11-24T16:05:13.188Z,61.45
2022-11-24T16:07:39.989Z,61.06
2022-11-24T16:10:12.610Z,60.97
2022-11-24T16:12:38.915Z,60.94
2022-11-24T16:15:05.862Z,61.06
2022-11-24T16:17:32.409Z,61.04
2022-11-24T16:20:00.809Z,60.94
2022-11-24T16:22:27.349Z,60.54
2022-11-24T16:24:53.681Z,61.32
2022-11-24T16:27:20.026Z,61.31
2022-11-24T16:29:46.358Z,61.47
2022-11-24T16:32:12.702Z,61.72
2022-11-24T16:34:39.222Z,62.30
2022-11-24T16:37:05.550Z,61.77
2022-11-24T16:39:31.945Z,61.77
2022-11-24T16:41:58.288Z,61.53
2022-11-24T16:44:24.794Z,61.78
2022-11-24T16:46:51.122Z,61.85
2022-11-24T16:49:17.458Z,61.80
2022-11-24T16:51:44.000Z,62.77
2022-11-24T16:54:10.365Z,62.92
2022-11-24T16:56:36.785Z,63.78
2022-11-24T16:59:03.695Z,64.43
2022-11-24T17:01:30.162Z,65.06
2022-11-24T17:03:56.597Z,66.32
2022-11-24T17:06:23.394Z,68.33
2022-11-24T17:08:49.764Z,68.54
2022-11-24T17:11:18.823Z,68.97
2022-11-24T17:13:46.852Z,68.45
2022-11-24T17:16:15.226Z,68.07
2022-11-24T17:18:42.251Z,67.48
2022-11-24T17:21:13.776Z,67.38
2022-11-24T17:23:40.507Z,67.16
2022-11-24T17:26:10.312Z,66.84
2022-11-24T17:28:37.320Z,65.96
2022-11-24T17:31:17.870Z,65.36
2022-11-24T17:33:44.426Z,65.37
2022-11-24T17:36:10.755Z,65.22
2022-11-24T17:38:37.118Z,64.70
2022-11-24T17:41:03.542Z,64.20
2022-11-24T17:43:29.903Z,64.28
2022-11-24T17:45:59.301Z,64.27
2022-11-24T17:48:25.709Z,64.64
2022-11-24T17:51:07.686Z,64.54
2022-11-24T17:53:36.602Z,65.62
2022-11-24T17:56:04.521Z,67.20
2022-11-24T17:58:32.932Z,67.73
2022-11-24T18:00:59.804Z,67.56
2022-11-24T18:03:28.632Z,68.08
2022-11-24T18:05:55.863Z,67.70
2022-11-24T18:08:22.319Z,67.34
2022-11-24T18:10:48.645Z,66.72
2022-11-24T18:13:34.323Z,66.34
2022-11-24T18:16:02.688Z,66.20
2022-11-24T18:18:29.050Z,65.98
2022-11-24T18:20:56.198Z,65.94
2022-11-24T18:23:22.989Z,67.07
2022-11-24T18:25:57.542Z,67.41
2022-11-24T18:28:25.028Z,67.66
2022-11-24T18:30:51.521Z,69.01
2022-11-24T18:33:18.610Z,69.32
2022-11-24T18:35:55.383Z,70.26
2022-11-24T18:38:21.749Z,70.67
2022-11-24T18:40:56.052Z,70.56
2022-11-24T18:43:23.772Z,69.53
2022-11-24T18:45:50.945Z,69.09
2022-11-24T18:48:17.270Z,68.21
2022-11-24T18:50:43.716Z,68.05
2022-11-24T18:53:10.273Z,67.96
2022-11-24T18:55:36.785Z,67.61
2022-11-24T18:58:03.127Z,67.57
2022-11-24T19:00:29.784Z,67.80
2022-11-24T19:02:56.101Z,68.17
2022-11-24T19:05:22.449Z,68.07
2022-11-24T19:07:48.808Z,68.12
2022-11-24T19:10:16.128Z,67.60
2022-11-24T19:12:44.655Z,67.94
2022-11-24T19:15:11.356Z,68.27
2022-11-24T19:17:40.227Z,68.25
2022-11-24T19:20:07.343Z,67.71
2022-11-24T19:22:36.306Z,67.57
2022-11-24T19:25:02.924Z,67.35
2022-11-24T19:27:35.033Z,67.18
2022-11-24T19:30:04.114Z,67.10
2022-11-24T19:32:32.317Z,67.23
2022-11-24T19:35:01.070Z,67.57
2022-11-24T19:37:28.940Z,67.58
2022-11-24T19:40:01.158Z,67.25
2022-11-24T19:42:29.884Z,67.32
2022-11-24T19:44:58.021Z,67.25
2022-11-24T19:47:24.400Z,67.02
2022-11-24T19:49:50.722Z,66.54
2022-11-24T19:52:17.039Z,66.58
2022-11-24T19:54:43.421Z,66.49
2022-11-24T19:57:09.756Z,66.18
2022-11-24T19:59:36.262Z,66.81
2022-11-24T20:02:02.944Z,66.46
2022-11-24T20:04:29.666Z,66.64
2022-11-24T20:06:55.981Z,66.70
2022-11-24T20:09:22.338Z,66.88
2022-11-24T20:11:48.991Z,66.72
2022-11-24T20:14:18.157Z,66.40
2022-11-24T20:16:46.413Z,66.99
2022-11-24T20:19:14.714Z,66.59
2022-11-24T20:21:45.873Z,66.55
2022-11-24T20:24:15.625Z,66.25
2022-11-24T20:26:46.110Z,66.51
2022-11-24T20:29:13.726Z,66.31
2022-11-24T20:31:46.304Z,66.75
2022-11-24T20:34:13.733Z,66.24
2022-11-24T20:36:41.909Z,66.30
2022-11-24T20:39:13.437Z,65.97
2022-11-24T20:41:41.334Z,66.21
2022-11-24T20:44:13.103Z,66.36
2022-11-24T20:46:41.825Z,66.86
2022-11-24T20:49:11.788Z,66.63
2022-11-24T20:51:41.824Z,66.87
2022-11-24T20:54:09.163Z,66.97
2022-11-24T20:56:38.066Z,67.36
2022-11-24T20:59:04.611Z,67.31
2022-11-24T21:01:38.232Z,67.24
2022-11-24T21:04:07.059Z,67.44
2022-11-24T21:06:33.525Z,67.55
2022-11-24T21:09:03.788Z,67.67
2022-11-24T21:11:31.170Z,67.26
2022-11-24T21:13:57.604Z,67.40
2022-11-24T21:16:30.083Z,67.40
2022-11-24T21:18:59.669Z,67.30
2022-11-24T21:21:33.210Z,67.20
2022-11-24T21:24:01.069Z,67.42
2022-11-24T21:26:28.110Z,67.33
2022-11-24T21:28:54.425Z,68.03
2022-11-24T21:31:21.745Z,67.77
2022-11-24T21:33:50.496Z,67.32
2022-11-24T21:36:19.960Z,67.25
2022-11-24T21:38:54.859Z,67.38
2022-11-24T21:41:22.289Z,66.89
2022-11-24T21:43:49.949Z,67.80
2022-11-24T21:46:17.155Z,67.60
2022-11-24T21:48:43.681Z,67.87
2022-11-24T21:51:13.465Z,67.49
2022-11-24T21:53:40.706Z,67.41
2022-11-24T21:56:12.642Z,67.79
2022-11-24T21:58:53.865Z,67.62
2022-11-24T22:01:25.778Z,67.48
2022-11-24T22:03:52.135Z,67.67
2022-11-24T22:06:19.941Z,67.46
2022-11-24T22:08:47.942Z,67.86
2022-11-24T22:11:17.317Z,67.92
2022-11-24T22:13:44.101Z,67.63
2022-11-24T22:16:16.428Z,67.76
2022-11-24T22:18:44.218Z,67.89
2022-11-24T22:21:19.733Z,68.14
2022-11-24T22:23:46.296Z,68.44
2022-11-24T22:26:21.544Z,68.16
2022-11-24T22:28:48.392Z,68.17
2022-11-24T22:31:17.414Z,68.05
2022-11-24T22:33:44.345Z,68.30
2022-11-24T22:36:12.367Z,68.15
2022-11-24T22:38:38.858Z,68.09
2022-11-24T22:41:08.306Z,68.57
2022-11-24T22:43:36.324Z,68.60
2022-11-24T22:46:12.126Z,68.60
2022-11-24T22:48:39.226Z,68.46
2022-11-24T22:51:07.798Z,68.32
2022-11-24T22:53:34.189Z,68.13
2022-11-24T22:56:02.674Z,68.15
2022-11-24T22:58:30.497Z,68.57
2022-11-24T23:00:57.557Z,68.60
2022-11-24T23:03:23.990Z,68.79
2022-11-24T23:05:50.403Z,68.62
2022-11-24T23:08:16.722Z,68.43
2022-11-24T23:10:43.060Z,68.43
2022-11-24T23:13:09.374Z,68.58
2022-11-24T23:15:35.675Z,68.82
2022-11-24T23:18:01.973Z,68.69
2022-11-24T23:20:28.310Z,68.98
2022-11-24T23:22:56.751Z,68.95
2022-11-24T23:25:23.309Z,69.15
2022-11-24T23:27:49.874Z,69.43
2022-11-24T23:30:16.254Z,69.90
2022-11-24T23:32:42.610Z,70.06
2022-11-24T23:35:13.629Z,70.50
2022-11-24T23:38:06.054Z,70.83
2022-11-24T23:40:28.257Z,71.71
2022-11-24T23:42:54.581Z,72.93
2022-11-24T23:45:20.896Z,73.11
2022-11-24T23:47:47.219Z,72.73
2022-11-24T23:50:13.545Z,72.04
2022-11-24T23:52:39.880Z,71.94
2022-11-24T23:55:06.563Z,71.56
2022-11-24T23:57:32.895Z,71.12
2022-11-24T23:59:59.195Z,70.83
